Time;durP1;ratioP1;P1;durP2;ratioP2;P2;SDS_P1;SDS_P2;PMS_P1;PMS_P2;Temp;Humidity;BMP_temperature;BMP_pressure;BME280_temperature;BME280_humidity;BME280_pressure;Samples;Min_cycle;Max_cycle;Signal;HPM_P1;HPM_P2
2022/11/26 00:01:40;;;;;;;5.73;3.93;;;6.60;93.60;;;6.57;60.02;95427.84;5025836;28;21024;-56
2022/11/26 00:04:08;;;;;;;7.20;5.00;;;6.60;93.90;;;6.58;59.73;95428.69;5026250;28;20472;-56
2022/11/26 00:06:37;;;;;;;7.40;4.10;;;6.60;94.00;;;6.58;59.72;95429.53;5024724;28;21245;-55
2022/11/26 00:09:05;;;;;;;5.03;4.07;;;6.60;94.00;;;6.58;59.59;95426.06;5024164;28;20488;-55
2022/11/26 00:11:33;;;;;;;7.90;4.10;;;6.60;94.10;;;6.59;59.93;95422.53;5025463;28;20901;-57
2022/11/26 00:14:00;;;;;;;6.40;4.70;;;6.60;94.20;;;6.58;60.46;95418.22;5025529;28;20500;-55
2022/11/26 00:16:27;;;;;;;10.10;5.30;;;6.60;94.50;;;6.56;60.43;95412.28;5025049;28;20515;-55
2022/11/26 00:18:54;;;;;;;5.30;4.83;;;6.60;94.50;;;6.54;60.26;95417.59;5022184;28;20488;-57
2022/11/26 00:21:24;;;;;;;5.40;4.43;;;6.60;94.40;;;6.53;60.27;95408.09;5024811;28;20457;-56
2022/11/26 00:23:52;;;;;;;7.47;4.60;;;6.60;94.60;;;6.52;59.82;95409.03;5024885;28;20476;-55
2022/11/26 00:26:21;;;;;;;11.17;5.47;;;6.60;94.50;;;6.51;60.16;95409.97;5024888;28;20460;-57
2022/11/26 00:28:51;;;;;;;5.40;4.57;;;6.60;94.60;;;6.50;59.91;95415.28;5025943;28;20472;-54
2022/11/26 00:31:18;;;;;;;4.67;4.27;;;6.60;94.50;;;6.49;60.51;95421.44;5025841;28;20496;-54
2022/11/26 00:33:45;;;;;;;7.03;4.67;;;6.50;94.50;;;6.45;60.02;95416.44;5025715;28;20484;-55
2022/11/26 00:36:19;;;;;;;9.90;4.63;;;6.50;94.50;;;6.42;60.56;95421.84;5024465;28;20463;-56
2022/11/26 00:38:46;;;;;;;4.77;4.30;;;6.50;94.40;;;6.39;60.15;95427.28;5021086;28;20824;-55
2022/11/26 00:41:17;;;;;;;5.20;4.13;;;6.50;94.50;;;6.35;60.21;95436.28;5024394;28;20468;-55
2022/11/26 00:43:45;;;;;;;6.40;4.73;;;6.40;94.60;;;6.32;59.93;95441.69;5025629;28;20508;-55
2022/11/26 00:46:14;;;;;;;10.10;5.30;;;6.40;94.50;;;6.29;60.27;95441.91;5028547;28;20802;-56
2022/11/26 00:48:41;;;;;;;9.47;5.40;;;6.30;94.60;;;6.23;60.17;95442.31;5028762;28;20542;-55
2022/11/26 00:51:12;;;;;;;6.13;4.60;;;6.30;94.70;;;6.18;60.66;95444.34;5027954;28;20492;-57
2022/11/26 00:53:39;;;;;;;8.17;5.60;;;6.30;94.70;;;6.15;61.24;95444.53;5028679;28;20452;-56
2022/11/26 00:56:08;;;;;;;7.37;4.93;;;6.20;95.20;;;6.10;60.71;95437.88;5028853;28;20980;-55
2022/11/26 00:58:37;;;;;;;8.70;5.63;;;6.20;95.00;;;6.07;61.18;95442.44;5029546;28;20455;-56
2022/11/26 01:01:04;;;;;;;9.53;5.93;;;6.10;95.10;;;6.03;60.79;95438.34;5025404;28;20553;-55
2022/11/26 01:03:31;;;;;;;9.63;5.23;;;6.10;95.20;;;5.99;61.49;95440.31;5028849;28;20452;-55
2022/11/26 01:05:59;;;;;;;7.60;5.30;;;6.10;95.70;;;5.97;61.56;95436.13;5029637;28;20514;-55
2022/11/26 01:08:31;;;;;;;7.50;5.50;;;6.00;95.70;;;5.93;61.37;95444.13;5028744;28;20484;-57
2022/11/26 01:10:59;;;;;;;8.10;5.30;;;6.00;95.50;;;5.91;61.61;95448.59;5024827;28;21020;-57
2022/11/26 01:13:26;;;;;;;12.87;5.73;;;6.00;95.80;;;5.91;62.51;95455.59;5029337;28;20829;-55
2022/11/26 01:15:55;;;;;;;8.87;5.50;;;6.00;96.20;;;5.87;62.81;95454.09;5029211;28;20460;-57
2022/11/26 01:18:22;;;;;;;6.90;5.23;;;6.00;96.60;;;5.86;62.55;95475.94;5027924;28;21004;-56
2022/11/26 01:20:50;;;;;;;7.77;5.43;;;5.90;96.60;;;5.85;62.08;95474.25;5028703;28;21018;-54
2022/11/26 01:23:18;;;;;;;7.73;4.97;;;5.90;96.20;;;5.82;61.62;95471.84;5028096;28;20457;-56
2022/11/26 01:25:46;;;;;;;6.67;4.87;;;5.90;96.00;;;5.80;61.79;95471.94;5028593;28;21020;-56
2022/11/26 01:28:14;;;;;;;4.70;4.03;;;5.90;95.90;;;5.74;62.45;95467.09;5028727;28;20457;-56
2022/11/26 01:30:41;;;;;;;4.73;4.23;;;5.80;96.20;;;5.71;61.71;95475.94;5028611;28;20643;-56
2022/11/26 01:33:10;;;;;;;10.00;3.97;;;5.80;95.80;;;5.70;61.55;95482.13;5027091;28;20468;-56
2022/11/26 01:35:37;;;;;;;4.77;4.37;;;5.80;95.90;;;5.66;61.91;95475.41;5028129;28;20465;-55
2022/11/26 01:38:05;;;;;;;5.07;3.60;;;5.80;96.10;;;5.64;61.67;95477.28;5027029;28;20927;-56
2022/11/26 01:40:41;;;;;;;5.67;4.83;;;5.70;95.90;;;5.66;61.87;95485.00;5026736;28;20480;-56
2022/11/26 01:43:13;;;;;;;7.60;4.93;;;5.80;95.80;;;5.64;61.79;95485.09;5024971;28;20448;-56
2022/11/26 01:45:40;;;;;;;5.00;4.50;;;5.70;95.80;;;5.62;61.75;95486.94;5027936;28;20469;-55
2022/11/26 01:48:26;;;;;;;4.90;3.67;;;5.70;95.70;;;5.60;62.09;95470.56;5026186;28;21010;-55
2022/11/26 01:51:05;;;;;;;5.97;4.80;;;5.70;96.00;;;5.57;62.07;95478.56;5024326;28;20487;-55
2022/11/26 01:53:42;;;;;;;7.27;5.33;;;5.70;96.30;;;5.53;62.00;95480.53;5028775;28;20452;-57
2022/11/26 01:56:18;;;;;;;5.60;5.10;;;5.60;96.20;;;5.50;62.17;95485.09;5027740;28;20456;-53
2022/11/26 01:58:48;;;;;;;7.20;5.90;;;5.60;96.40;;;5.48;62.29;95479.13;5025538;28;20511;-56
2022/11/26 02:01:15;;;;;;;8.33;5.90;;;5.60;96.80;;;5.48;62.83;95485.19;5027606;28;20464;-55
2022/11/26 02:03:51;;;;;;;9.13;5.77;;;5.60;96.90;;;5.48;63.08;95486.97;5025825;28;20535;-58
2022/11/26 02:06:21;;;;;;;5.77;5.17;;;5.60;97.00;;;5.47;62.75;95480.06;5027251;28;20444;-57
2022/11/26 02:08:48;;;;;;;6.67;5.97;;;5.60;96.80;;;5.46;63.07;95478.41;5027521;28;20468;-55
2022/11/26 02:11:18;;;;;;;12.00;6.50;;;5.60;97.20;;;5.45;62.82;95477.53;5027148;28;20561;-56
2022/11/26 02:13:46;;;;;;;7.17;5.93;;;5.60;97.00;;;5.43;63.08;95478.59;5024145;28;20477;-56
2022/11/26 02:16:20;;;;;;;7.37;6.67;;;5.50;97.20;;;5.41;63.15;95483.03;5027113;28;20449;-54
2022/11/26 02:18:55;;;;;;;7.83;6.30;;;5.50;97.50;;;5.38;63.66;95477.09;5027547;28;20491;-57
2022/11/26 02:21:25;;;;;;;8.13;6.10;;;5.50;97.60;;;5.36;63.49;95472.88;5027654;28;20515;-56
2022/11/26 02:24:21;;;;;;;8.40;7.10;;;5.50;97.70;;;5.32;63.54;95467.03;5027459;28;20857;-55
2022/11/26 02:27:56;;;;;;;7.03;5.97;;;5.40;97.60;;;5.30;64.09;95463.69;5026739;28;20456;-55
2022/11/26 02:30:25;;;;;;;12.50;7.20;;;5.40;97.90;;;5.29;63.65;95471.59;5012050;28;20926;-55
2022/11/26 02:32:58;;;;;;;7.20;5.60;;;5.40;97.80;;;5.27;63.77;95463.03;5027928;28;20475;-55
2022/11/26 02:35:29;;;;;;;7.97;6.37;;;5.40;98.00;;;5.25;63.90;95457.06;5026627;28;20511;-55
2022/11/26 02:37:58;;;;;;;9.83;6.10;;;5.30;97.80;;;5.22;64.49;95463.31;5026980;28;20448;-56
2022/11/26 02:40:26;;;;;;;9.23;6.30;;;5.30;98.20;;;5.19;64.19;95453.91;5026863;28;20472;-55
2022/11/26 02:42:53;;;;;;;8.70;7.20;;;5.30;98.20;;;5.18;64.38;95456.59;5026814;28;20868;-55
2022/11/26 02:45:23;;;;;;;7.83;6.23;;;5.30;98.40;;;5.15;64.46;95462.81;5023808;28;20468;-55
2022/11/26 02:47:54;;;;;;;13.07;7.33;;;5.30;98.30;;;5.12;64.43;95462.19;5023854;28;20456;-56
2022/11/26 02:50:24;;;;;;;9.53;6.63;;;5.20;98.40;;;5.10;64.55;95466.66;5027305;28;20481;-56
2022/11/26 02:52:51;;;;;;;6.80;6.13;;;5.20;98.20;;;5.05;64.43;95464.31;5026916;28;20469;-55
2022/11/26 02:55:19;;;;;;;9.07;6.30;;;5.20;98.40;;;5.05;64.94;95468.69;5026837;28;21264;-54
2022/11/26 02:57:50;;;;;;;10.20;6.63;;;5.20;98.80;;;5.02;64.66;95464.50;5026601;28;20452;-56
2022/11/26 03:00:19;;;;;;;13.30;6.10;;;5.20;98.60;;;4.99;64.75;95478.56;5026922;28;20491;-54
2022/11/26 03:02:48;;;;;;;10.20;6.33;;;5.10;98.70;;;4.96;64.76;95470.91;5026413;28;20534;-54
2022/11/26 03:05:18;;;;;;;6.07;5.47;;;5.10;98.60;;;4.95;64.25;95481.44;5026157;28;20480;-56
2022/11/26 03:07:46;;;;;;;7.70;6.27;;;5.10;98.40;;;4.92;64.72;95485.03;5022310;28;20681;-56
2022/11/26 03:10:13;;;;;;;8.20;6.63;;;5.10;98.70;;;4.93;64.71;95486.72;5026232;28;20464;-54
2022/11/26 03:12:41;;;;;;;7.73;5.40;;;5.00;98.60;;;4.92;64.69;95498.06;5026186;28;20514;-55
2022/11/26 03:15:10;;;;;;;7.73;5.57;;;5.00;98.70;;;4.90;64.91;95492.13;5026205;28;20873;-55
2022/11/26 03:17:38;;;;;;;8.87;5.97;;;5.00;98.80;;;4.88;65.07;95495.75;5026224;28;20457;-55
2022/11/26 03:20:07;;;;;;;5.73;5.23;;;5.00;98.80;;;4.86;65.11;95498.44;5026332;28;20526;-56
2022/11/26 03:22:35;;;;;;;15.43;5.30;;;4.90;98.80;;;4.81;64.89;95498.69;5026461;28;20452;-55
2022/11/26 03:25:03;;;;;;;5.57;4.87;;;5.00;98.70;;;4.77;64.64;95505.03;5026670;28;20516;-54
2022/11/26 03:27:30;;;;;;;6.90;5.10;;;4.90;98.40;;;4.75;64.58;95508.66;5026489;28;20539;-55
2022/11/26 03:29:57;;;;;;;9.60;5.50;;;4.90;98.60;;;4.74;64.79;95512.19;5025806;28;20477;-57
2022/11/26 03:32:25;;;;;;;6.07;5.47;;;4.90;98.70;;;4.70;64.77;95510.69;5026030;28;20523;-56
2022/11/26 03:34:52;;;;;;;8.50;6.10;;;4.90;98.70;;;4.66;65.32;95526.50;5025790;28;20484;-56
2022/11/26 03:37:19;;;;;;;7.50;5.97;;;4.80;99.00;;;4.63;65.22;95521.47;5026142;28;20872;-57
2022/11/26 03:39:48;;;;;;;8.23;5.97;;;4.80;99.00;;;4.58;64.94;95528.69;5025857;28;20472;-55
2022/11/26 03:42:15;;;;;;;7.00;6.30;;;4.70;98.90;;;4.54;65.04;95537.63;5025564;28;20506;-55
2022/11/26 03:44:42;;;;;;;10.77;7.30;;;4.70;99.00;;;4.52;65.24;95536.84;5026180;28;20495;-55
2022/11/26 03:47:09;;;;;;;7.20;6.43;;;4.60;99.10;;;4.49;65.96;95540.47;5025677;28;21036;-55
2022/11/26 03:49:36;;;;;;;9.90;7.17;;;4.60;99.60;;;4.48;65.44;95532.75;5021903;28;20491;-55
2022/11/26 03:52:04;;;;;;;6.80;5.70;;;4.60;99.40;;;4.46;65.96;95537.19;5023248;28;20496;-56
2022/11/26 03:54:31;;;;;;;7.77;6.23;;;4.60;99.60;;;4.46;65.86;95535.44;5025911;28;20484;-55
2022/11/26 03:57:00;;;;;;;10.93;6.37;;;4.60;99.70;;;4.44;65.83;95541.66;5025790;28;20952;-57
2022/11/26 03:59:27;;;;;;;9.00;6.77;;;4.60;99.60;;;4.42;66.50;95538.31;5025431;28;20465;-56
2022/11/26 04:01:55;;;;;;;7.30;6.60;;;4.50;99.90;;;4.39;65.88;95543.69;5025152;28;20456;-54
2022/11/26 04:04:22;;;;;;;9.07;6.53;;;4.50;99.80;;;4.35;66.20;95548.19;5024945;28;20488;-56
2022/11/26 04:06:49;;;;;;;7.97;6.07;;;4.50;99.90;;;4.31;65.94;95552.75;5025723;28;20475;-56
2022/11/26 04:09:16;;;;;;;10.03;6.20;;;4.50;99.70;;;4.29;66.04;95565.03;5025144;28;20479;-53
2022/11/26 04:11:44;;;;;;;8.87;7.30;;;4.40;99.90;;;4.25;66.00;95568.72;5025521;28;20494;-56
2022/11/26 04:14:12;;;;;;;8.83;7.73;;;4.40;99.90;;;4.23;66.39;95565.38;5025554;28;20473;-56
2022/11/26 04:16:39;;;;;;;7.63;6.80;;;4.30;99.80;;;4.22;66.73;95566.28;5025690;28;20455;-54
2022/11/26 04:19:07;;;;;;;11.90;6.83;;;4.40;99.90;;;4.20;66.51;95565.53;5027270;28;21131;-54
2022/11/26 04:21:34;;;;;;;8.57;6.77;;;4.30;99.90;;;4.18;67.67;95577.78;5029653;28;20957;-56
2022/11/26 04:24:01;;;;;;;9.73;8.00;;;4.30;99.90;;;4.17;67.62;95575.25;5029426;28;20469;-54
2022/11/26 04:26:28;;;;;;;9.87;7.87;;;4.30;99.90;;;4.18;66.96;95576.94;5029580;28;20455;-57
2022/11/26 04:28:56;;;;;;;12.63;8.43;;;4.30;99.90;;;4.20;67.41;95572.47;5030233;28;20472;-56
2022/11/26 04:31:24;;;;;;;10.27;7.90;;;4.30;99.90;;;4.20;67.40;95585.50;5029697;28;21021;-55
2022/11/26 04:33:52;;;;;;;8.73;7.83;;;4.30;99.90;;;4.19;67.45;95584.66;5029588;28;20472;-55
2022/11/26 04:36:19;;;;;;;8.07;6.90;;;4.30;99.90;;;4.19;67.16;95595.09;5030146;28;20538;-55
2022/11/26 04:38:46;;;;;;;11.30;6.80;;;4.40;99.90;;;4.20;66.93;95591.56;5025723;28;20476;-56
2022/11/26 04:41:13;;;;;;;8.73;6.93;;;4.30;99.90;;;4.20;67.50;95601.97;5026497;28;20479;-55
2022/11/26 04:43:41;;;;;;;8.53;7.17;;;4.40;99.90;;;4.21;67.68;95597.59;5029888;28;20453;-55
2022/11/26 04:46:08;;;;;;;9.20;7.60;;;4.40;99.90;;;4.22;67.59;95605.34;5029789;28;20448;-54
2022/11/26 04:48:37;;;;;;;8.77;7.50;;;4.40;99.90;;;4.22;67.51;95601.91;5029745;28;20556;-55
2022/11/26 04:51:04;;;;;;;7.93;6.80;;;4.40;99.90;;;4.22;67.57;95605.34;5029686;28;20484;-54
2022/11/26 04:53:31;;;;;;;9.13;6.33;;;4.30;99.90;;;4.23;67.13;95614.84;5029541;28;20453;-56
2022/11/26 04:55:58;;;;;;;11.50;7.40;;;4.40;99.90;;;4.24;67.41;95613.06;5029630;28;20452;-54
2022/11/26 04:58:26;;;;;;;9.63;6.23;;;4.40;99.90;;;4.24;67.41;95621.69;5029126;28;20460;-55
2022/11/26 05:00:53;;;;;;;10.97;7.07;;;4.40;99.90;;;4.22;67.27;95618.34;5029480;28;20467;-56
2022/11/26 05:03:20;;;;;;;11.27;7.53;;;4.40;99.90;;;4.22;67.54;95617.53;5028193;28;20960;-55
2022/11/26 05:05:49;;;;;;;12.50;6.70;;;4.40;99.90;;;4.21;67.50;95621.88;5029614;28;20464;-56
2022/11/26 05:08:16;;;;;;;8.60;6.43;;;4.40;99.90;;;4.21;67.55;95610.63;5029469;28;20917;-55
2022/11/26 05:10:43;;;;;;;9.50;6.43;;;4.30;99.90;;;4.19;67.53;95621.13;5029421;28;20472;-56
2022/11/26 05:13:10;;;;;;;8.20;6.60;;;4.30;99.90;;;4.18;67.70;95610.78;5029176;28;20495;-56
2022/11/26 05:15:38;;;;;;;8.10;6.47;;;4.30;99.90;;;4.18;67.40;95616.81;5029124;28;20480;-56
2022/11/26 05:18:05;;;;;;;8.87;6.03;;;4.30;99.90;;;4.17;67.52;95622.13;5028829;28;20871;-55
2022/11/26 05:20:32;;;;;;;7.87;6.70;;;4.30;99.90;;;4.19;67.10;95628.09;5029565;28;20471;-55
2022/11/26 05:23:01;;;;;;;7.00;6.13;;;4.30;99.90;;;4.21;67.63;95634.06;5028864;28;20471;-55
2022/11/26 05:25:28;;;;;;;13.70;7.10;;;4.30;99.90;;;4.23;67.69;95634.81;5028616;28;20471;-54
2022/11/26 05:27:56;;;;;;;8.77;6.37;;;4.40;99.90;;;4.23;67.94;95630.47;5028602;28;20463;-55
2022/11/26 05:30:23;;;;;;;8.83;6.30;;;4.40;99.90;;;4.25;67.31;95633.81;5023554;28;21012;-55
2022/11/26 05:32:50;;;;;;;7.83;6.73;;;4.40;99.90;;;4.26;67.79;95642.44;5026010;28;21055;-55
2022/11/26 05:35:18;;;;;;;7.57;6.87;;;4.40;99.90;;;4.27;67.58;95634.56;5028076;28;21029;-57
2022/11/26 05:37:45;;;;;;;8.47;7.57;;;4.40;99.90;;;4.26;67.32;95643.31;5028762;28;21005;-55
2022/11/26 05:40:14;;;;;;;11.43;7.57;;;4.40;99.90;;;4.27;67.35;95639.75;5028063;28;20464;-55
2022/11/26 05:42:42;;;;;;;16.17;8.00;;;4.40;99.90;;;4.28;67.12;95651.88;5028270;28;20956;-57
2022/11/26 05:45:10;;;;;;;7.50;6.60;;;4.40;99.90;;;4.29;67.22;95648.34;5028286;28;20475;-55
2022/11/26 05:47:37;;;;;;;13.57;7.80;;;4.40;99.90;;;4.30;67.03;95644.81;5025821;28;20464;-56
2022/11/26 05:50:06;;;;;;;8.47;7.30;;;4.40;99.90;;;4.34;67.20;95649.84;5028198;28;21017;-56
2022/11/26 05:52:33;;;;;;;9.87;7.07;;;4.50;99.90;;;4.37;67.44;95652.28;5027785;28;20518;-56
2022/11/26 05:55:00;;;;;;;9.00;6.90;;;4.50;99.90;;;4.48;66.81;95663.00;5027719;28;20554;-55
2022/11/26 05:57:29;;;;;;;11.77;7.60;;;4.60;99.90;;;4.77;66.89;95648.38;5027717;28;20838;-56
2022/11/26 05:59:56;;;;;;;10.40;8.67;;;4.80;99.90;;;5.18;66.53;95653.00;5027253;28;20916;-56
2022/11/26 06:02:23;;;;;;;11.23;7.00;;;5.10;99.90;;;5.65;65.54;95643.34;5025376;28;20460;-54
2022/11/26 06:04:51;;;;;;;10.13;7.03;;;5.40;99.90;;;6.19;64.43;95647.16;5026835;28;20487;-56
2022/11/26 06:07:18;;;;;;;13.90;7.40;;;6.00;99.90;;;6.81;63.85;95652.00;5027834;28;20772;-55
2022/11/26 06:09:45;;;;;;;8.40;7.40;;;6.60;99.80;;;7.47;62.58;95646.91;5027557;28;20473;-57
2022/11/26 06:12:12;;;;;;;8.60;7.13;;;7.30;99.40;;;8.16;61.79;95654.50;5027393;28;20496;-55
2022/11/26 06:14:41;;;;;;;13.40;8.20;;;8.00;98.30;;;8.85;59.85;95652.31;5027215;28;20472;-57
2022/11/26 06:17:08;;;;;;;10.70;8.03;;;8.60;97.30;;;9.50;58.79;95655.50;5023908;28;20559;-57
2022/11/26 06:19:36;;;;;;;7.00;6.07;;;9.30;96.50;;;10.14;57.85;95648.94;5027078;28;20476;-57
2022/11/26 06:22:03;;;;;;;12.63;7.57;;;9.90;95.60;;;10.76;56.38;95655.53;5027489;28;20464;-59
2022/11/26 06:24:30;;;;;;;6.97;6.20;;;10.60;93.90;;;11.28;55.05;95653.16;5026959;28;20479;-57
2022/11/26 06:26:57;;;;;;;8.40;6.73;;;11.10;92.60;;;11.66;54.49;95649.16;5027042;28;20806;-56
2022/11/26 06:29:25;;;;;;;11.70;8.23;;;11.60;91.90;;;12.12;53.86;95653.25;5026510;28;20476;-57
2022/11/26 06:31:53;;;;;;;16.40;7.00;;;12.10;91.20;;;12.51;52.44;95661.38;5025166;28;20562;-56
2022/11/26 06:34:21;;;;;;;12.03;7.70;;;12.50;90.00;;;12.55;51.30;95662.78;5026218;28;20535;-56
2022/11/26 06:36:48;;;;;;;12.77;8.23;;;12.60;86.70;;;12.34;51.22;95654.06;5026850;28;20564;-54
2022/11/26 06:39:15;;;;;;;8.80;6.43;;;12.50;84.50;;;11.96;51.22;95660.78;5026236;28;20473;-56
2022/11/26 06:41:42;;;;;;;15.73;6.40;;;12.20;84.20;;;11.52;51.60;95663.47;5026686;28;20453;-55
2022/11/26 06:44:10;;;;;;;6.80;6.20;;;11.80;83.60;;;11.15;51.41;95663.00;5026223;28;20479;-55
2022/11/26 06:46:37;;;;;;;9.63;7.23;;;11.30;82.50;;;10.83;52.31;95671.69;5026465;28;20453;-57
2022/11/26 06:49:06;;;;;;;14.53;6.70;;;11.00;83.90;;;10.57;53.19;95661.44;5026019;28;20473;-54
2022/11/26 06:51:33;;;;;;;9.30;6.80;;;10.70;85.40;;;10.52;53.82;95669.69;5026517;28;20457;-57
2022/11/26 06:54:01;;;;;;;10.10;6.00;;;10.70;87.10;;;10.81;54.03;95668.34;5025628;28;20477;-57
2022/11/26 06:56:28;;;;;;;8.00;7.20;;;10.80;88.00;;;10.91;53.17;95664.03;5026863;28;20758;-53
2022/11/26 06:58:55;;;;;;;9.47;6.93;;;10.90;86.90;;;10.84;52.83;95662.84;5026249;28;20476;-57
2022/11/26 07:01:24;;;;;;;8.40;6.40;;;10.90;85.80;;;10.66;52.89;95673.88;5025535;28;20472;-56
2022/11/26 07:03:52;;;;;;;10.50;7.27;;;10.80;85.20;;;10.39;52.71;95674.22;5024050;28;20519;-56
2022/11/26 07:06:22;;;;;;;10.10;7.47;;;10.50;84.20;;;10.11;52.89;95672.84;5022169;28;20506;-56
2022/11/26 07:08:49;;;;;;;8.27;7.37;;;10.20;84.90;;;9.88;53.47;95667.53;5026290;28;20469;-54
2022/11/26 07:11:16;;;;;;;9.83;7.73;;;10.00;86.00;;;9.60;53.54;95672.22;5026124;28;20457;-56
2022/11/26 07:13:44;;;;;;;13.70;7.13;;;9.70;87.40;;;9.35;53.83;95683.69;5026027;28;20496;-56
2022/11/26 07:16:11;;;;;;;8.50;7.00;;;9.50;87.80;;;9.08;54.60;95682.13;5025974;28;20472;-56
2022/11/26 07:18:38;;;;;;;15.20;10.43;;;9.20;88.90;;;8.85;55.26;95683.78;5025720;28;20453;-55
2022/11/26 07:21:06;;;;;;;20.30;13.03;;;8.90;89.70;;;8.67;56.14;95682.47;5026126;28;20567;-55
2022/11/26 07:23:35;;;;;;;29.80;13.27;;;8.70;90.50;;;8.52;55.58;95685.22;5025951;28;20456;-56
2022/11/26 07:26:03;;;;;;;18.83;12.10;;;8.60;90.70;;;8.37;55.91;95673.13;5025727;28;20546;-56
2022/11/26 07:28:30;;;;;;;30.30;14.20;;;8.40;90.70;;;8.25;55.85;95677.44;5025565;28;20449;-55
2022/11/26 07:31:01;;;;;;;36.67;12.53;;;8.30;90.90;;;8.16;56.46;95683.31;5025193;28;20825;-55
2022/11/26 07:33:28;;;;;;;23.03;12.30;;;8.20;91.00;;;8.06;56.01;95683.09;5024583;28;20546;-56
2022/11/26 07:35:58;;;;;;;19.70;12.63;;;8.10;91.20;;;7.96;56.43;95674.19;5025437;28;20862;-55
2022/11/26 07:38:25;;;;;;;22.43;12.80;;;8.00;91.40;;;7.87;56.97;95684.34;5025459;28;20460;-56
2022/11/26 07:40:54;;;;;;;19.40;12.13;;;7.90;91.50;;;7.80;56.95;95685.69;5025647;28;20436;-56
2022/11/26 07:43:21;;;;;;;20.63;11.80;;;7.90;91.70;;;7.74;57.16;95688.72;5022378;28;20468;-56
2022/11/26 07:45:48;;;;;;;21.00;11.80;;;7.80;92.00;;;7.69;57.50;95691.66;5025776;28;20453;-55
2022/11/26 07:48:16;;;;;;;18.90;11.30;;;7.80;92.10;;;7.64;57.38;95698.97;5025628;28;20498;-56
2022/11/26 07:50:44;;;;;;;16.03;10.90;;;7.70;92.20;;;7.63;57.38;95699.06;5025308;28;20483;-57
2022/11/26 07:53:12;;;;;;;17.53;11.10;;;7.70;92.50;;;7.64;57.53;95704.22;5025322;28;20514;-60
2022/11/26 07:55:39;;;;;;;20.43;11.40;;;7.70;92.70;;;7.71;57.68;95705.50;5025623;28;20468;-58
2022/11/26 07:58:08;;;;;;;18.03;9.87;;;7.70;92.90;;;7.76;57.58;95707.81;5025667;28;20507;-56
2022/11/26 08:00:36;;;;;;;18.13;11.13;;;7.80;93.00;;;7.80;57.95;95713.66;5024976;28;20563;-55
2022/11/26 08:03:03;;;;;;;20.77;10.70;;;7.80;92.90;;;7.83;57.84;95716.91;5025577;28;20858;-57
2022/11/26 08:05:30;;;;;;;21.00;9.80;;;7.80;93.00;;;7.85;57.68;95711.56;5025372;28;20590;-58
2022/11/26 08:07:57;;;;;;;18.83;10.00;;;7.90;93.00;;;7.87;57.40;95723.63;5025160;28;20532;-57
2022/11/26 08:10:25;;;;;;;16.03;11.80;;;7.90;93.00;;;7.90;57.77;95715.56;5024974;28;20475;-57
2022/11/26 08:12:52;;;;;;;27.07;11.83;;;7.90;92.90;;;7.94;58.40;95710.13;5025276;28;20519;-57
2022/11/26 08:15:21;;;;;;;25.10;13.33;;;7.90;93.10;;;8.03;59.59;95715.59;5024786;28;20651;-56
2022/11/26 08:17:48;;;;;;;11.47;8.00;;;8.00;94.60;;;8.18;58.33;95716.34;5024790;28;20832;-56
2022/11/26 08:20:15;;;;;;;15.27;10.90;;;8.10;94.10;;;8.35;57.64;95714.31;5025378;28;20817;-56
2022/11/26 08:22:43;;;;;;;19.60;11.10;;;8.30;93.50;;;8.49;57.63;95718.66;5025151;28;20448;-55
2022/11/26 08:25:10;;;;;;;13.47;8.97;;;8.40;93.20;;;8.62;56.83;95716.88;5021055;28;20473;-57
2022/11/26 08:27:37;;;;;;;12.23;6.40;;;8.60;92.90;;;8.79;55.84;95715.69;5021709;28;20453;-60
2022/11/26 08:30:07;;;;;;;7.90;6.90;;;8.70;91.70;;;8.96;56.36;95720.56;5024269;28;20472;-56
2022/11/26 08:32:35;;;;;;;8.23;5.90;;;8.90;92.10;;;9.25;55.05;95715.03;5024318;28;20503;-57
2022/11/26 08:35:03;;;;;;;5.73;5.23;;;9.10;91.40;;;9.51;55.10;95720.16;5025083;28;20994;-53
2022/11/26 08:37:30;;;;;;;6.70;6.00;;;9.40;91.50;;;9.63;54.21;95715.81;5024875;28;20567;-56
2022/11/26 08:39:57;;;;;;;11.10;7.30;;;9.50;90.90;;;9.66;53.27;95724.28;5025170;28;20548;-56
2022/11/26 08:42:25;;;;;;;12.40;7.63;;;9.60;89.60;;;9.65;53.92;95727.88;5025084;28;20483;-56
2022/11/26 08:44:53;;;;;;;8.27;7.37;;;9.60;90.10;;;9.73;53.91;95723.84;5025120;28;20484;-56
2022/11/26 08:47:20;;;;;;;7.30;6.70;;;9.60;90.00;;;9.81;53.82;95726.75;5020462;28;20472;-55
2022/11/26 08:49:49;;;;;;;7.10;6.60;;;9.70;90.00;;;9.89;52.93;95721.75;5023949;28;20485;-56
2022/11/26 08:52:16;;;;;;;12.23;7.30;;;9.80;88.30;;;9.93;53.41;95714.47;5024449;28;20488;-55
2022/11/26 08:54:44;;;;;;;7.40;6.33;;;9.90;89.10;;;9.94;53.61;95724.88;5024221;28;20477;-56
2022/11/26 08:57:11;;;;;;;9.47;7.30;;;9.90;89.10;;;10.05;53.43;95722.31;5024548;28;20558;-55
2022/11/26 08:59:38;;;;;;;10.43;7.77;;;10.00;88.00;;;10.18;53.12;95724.00;5023647;28;21031;-55
2022/11/26 09:02:06;;;;;;;13.00;7.97;;;10.10;87.50;;;10.25;53.02;95719.94;5024670;28;20453;-57
2022/11/26 09:04:33;;;;;;;22.07;9.27;;;10.10;87.50;;;10.28;53.00;95729.38;5024781;28;20837;-58
2022/11/26 09:07:02;;;;;;;7.20;6.03;;;10.20;87.40;;;10.40;52.77;95729.31;5027642;28;20542;-56
2022/11/26 09:09:29;;;;;;;8.03;7.00;;;10.40;86.30;;;10.68;52.11;95732.44;5028389;28;20538;-57
2022/11/26 09:11:58;;;;;;;9.30;6.60;;;10.50;85.60;;;11.02;50.93;95735.06;5024770;28;20884;-58
2022/11/26 09:14:27;;;;;;;6.60;5.90;;;10.80;84.30;;;11.26;51.17;95734.06;5028220;28;20506;-54
2022/11/26 09:16:55;;;;;;;6.23;5.70;;;11.00;84.40;;;11.43;51.13;95728.31;5027667;28;20461;-55
2022/11/26 09:19:22;;;;;;;6.63;5.93;;;11.30;84.30;;;11.84;50.92;95721.44;5028170;28;20591;-56
2022/11/26 09:21:49;;;;;;;6.80;6.20;;;11.60;83.80;;;12.40;49.25;95724.78;5027245;28;20464;-55
2022/11/26 09:24:18;;;;;;;9.00;7.00;;;12.10;80.90;;;12.92;49.16;95724.78;5028001;28;20475;-55
2022/11/26 09:26:47;;;;;;;7.13;6.37;;;12.50;81.40;;;13.34;48.70;95727.28;5027787;28;20457;-55
2022/11/26 09:29:15;;;;;;;9.37;7.50;;;13.00;80.30;;;13.72;47.58;95724.84;5027272;28;20694;-56
2022/11/26 09:31:43;;;;;;;8.20;7.00;;;13.40;78.60;;;13.90;46.97;95719.69;5028363;28;21035;-57
2022/11/26 09:34:10;;;;;;;6.60;5.67;;;13.60;75.40;;;13.97;46.21;95718.16;5027866;28;20618;-57
2022/11/26 09:36:37;;;;;;;7.87;6.20;;;13.80;72.40;;;13.94;46.44;95716.63;5027724;28;20457;-55
2022/11/26 09:39:05;;;;;;;8.90;6.87;;;13.80;72.60;;;14.02;46.41;95715.94;5027602;28;20477;-57
2022/11/26 09:41:42;;;;;;;11.20;6.97;;;13.90;73.40;;;14.42;46.29;95711.41;5027435;28;20522;-55
2022/11/26 09:44:55;;;;;;;8.20;6.77;;;14.20;73.10;;;15.11;44.71;95714.69;5026229;28;20487;-55
2022/11/26 09:47:23;;;;;;;13.50;6.27;;;14.70;71.80;;;15.74;43.74;95712.06;5022493;28;20456;-56
2022/11/26 09:49:58;;;;;;;6.90;6.20;;;15.30;69.40;;;16.26;42.99;95707.91;5024961;28;20530;-57
2022/11/26 09:52:28;;;;;;;10.37;7.30;;;15.80;68.20;;;16.74;42.36;95708.41;5019936;28;20481;-56
2022/11/26 09:55:03;;;;;;;8.03;7.00;;;16.30;66.60;;;17.24;41.61;95702.34;5014910;28;20473;-55
2022/11/26 09:57:35;;;;;;;10.80;7.20;;;16.80;64.30;;;17.65;41.32;95702.47;5018728;28;21033;-58
2022/11/26 10:00:03;;;;;;;8.20;6.73;;;17.20;63.70;;;18.05;40.19;95689.41;5016292;28;20687;-56
2022/11/26 10:02:31;;;;;;;9.93;6.93;;;17.60;61.80;;;18.49;40.02;95686.38;5019437;28;20457;-57
2022/11/26 10:04:58;;;;;;;7.93;7.03;;;18.00;60.70;;;18.97;39.15;95684.63;5013368;28;20480;-56
2022/11/26 10:07:47;;;;;;;6.83;6.23;;;18.50;59.10;;;19.48;38.13;95676.22;5019340;28;20914;-56
2022/11/26 10:10:17;;;;;;;6.87;6.27;;;19.00;57.90;;;19.96;37.76;95677.97;5016307;28;20478;-57
2022/11/26 10:12:56;;;;;;;10.23;7.60;;;19.50;56.80;;;20.38;37.18;95673.94;5021259;28;20568;-57
2022/11/26 10:15:28;;;;;;;11.90;7.07;;;19.90;56.10;;;20.75;36.67;95670.44;5016628;28;20500;-55
2022/11/26 10:17:59;;;;;;;8.97;6.80;;;20.20;55.10;;;21.06;35.52;95669.41;5019857;28;20449;-57
2022/11/26 10:21:04;;;;;;;8.40;7.60;;;20.60;53.30;;;21.34;31.72;95668.75;5013171;28;20481;-57
2022/11/26 10:23:33;;;;;;;9.93;5.60;;;20.90;47.50;;;21.29;32.39;95666.63;4944159;28;20457;-56
2022/11/26 10:26:06;;;;;;;8.33;6.47;;;21.00;47.40;;;21.29;34.80;95669.31;4940450;28;20886;-60
2022/11/26 10:28:39;;;;;;;5.60;5.17;;;21.00;50.80;;;21.52;34.46;95657.69;4981267;28;20533;-57
2022/11/26 10:31:15;;;;;;;6.90;6.20;;;21.10;50.90;;;21.83;32.91;95654.69;5016160;28;20469;-57
2022/11/26 10:33:48;;;;;;;7.93;6.60;;;21.40;49.70;;;22.23;33.63;95646.22;5018739;28;20488;-56
2022/11/26 10:36:24;;;;;;;6.50;5.80;;;21.80;49.30;;;22.73;32.55;95647.00;5012176;28;20539;-57